EDLW/DTM METAR and TAF weather

Enter ICAO airport designator
Station Type Date Time Source
EDLW METAR 2021/05/15 02:20 UTC NOAA

EDLW 150220Z AUTO 17008KT 9999 // FEW073/// OVC096/// 09/07 Q1006


Station Type Date Time Source
EDLW Decoded METAR 2021/05/15 02:20 UTC NOAA

Dortmund / Wickede, Germany (EDLW) 51-31N 007-37E
May 14, 2021 - 10:20 PM EDT / 2021.05.15 0220 UTC
Wind: from the S (170 degrees) at 9 MPH (8 KT):0
Visibility: greater than 7 mile(s):0
Sky conditions: overcast
Temperature: 48 F (9 C)
Dew Point: 44 F (7 C)
Relative Humidity: 87%
Pressure (altimeter): 29.71 in. Hg (1006 hPa)
ob: EDLW 150220Z AUTO 17008KT 9999 // FEW073/// OVC096/// 09/07 Q1006
cycle: 2

Station Type Date Time Source
EDLW TAF 2021/05/14 22:14 UTC NOAA

TAF EDLW 142205Z 1422/1518 CNL

Example: see airport list